sensor_id;sensor_type;location;lat;lon;timestamp;P1;durP1;ratioP1;P2;durP2;ratioP2
21202;SDS011;10759;51.982;9.232;2023-07-20T00:00:47;4.25;;;3.40;;
21202;SDS011;10759;51.982;9.232;2023-07-20T00:03:16;4.38;;;3.72;;
21202;SDS011;10759;51.982;9.232;2023-07-20T00:05:46;4.13;;;3.30;;
21202;SDS011;10759;51.982;9.232;2023-07-20T00:08:14;3.88;;;3.40;;
21202;SDS011;10759;51.982;9.232;2023-07-20T00:10:42;5.93;;;3.35;;
21202;SDS011;10759;51.982;9.232;2023-07-20T00:13:12;5.63;;;4.05;;
21202;SDS011;10759;51.982;9.232;2023-07-20T00:15:40;4.53;;;3.42;;
21202;SDS011;10759;51.982;9.232;2023-07-20T00:18:07;4.07;;;3.67;;
21202;SDS011;10759;51.982;9.232;2023-07-20T00:20:35;4.93;;;3.83;;
21202;SDS011;10759;51.982;9.232;2023-07-20T00:23:03;5.90;;;3.97;;
21202;SDS011;10759;51.982;9.232;2023-07-20T00:25:31;6.57;;;3.40;;
21202;SDS011;10759;51.982;9.232;2023-07-20T00:28:00;7.40;;;4.00;;
21202;SDS011;10759;51.982;9.232;2023-07-20T00:30:29;4.40;;;4.00;;
21202;SDS011;10759;51.982;9.232;2023-07-20T00:32:57;6.25;;;4.13;;
21202;SDS011;10759;51.982;9.232;2023-07-20T00:35:26;4.18;;;3.67;;
21202;SDS011;10759;51.982;9.232;2023-07-20T00:37:54;6.00;;;3.40;;
21202;SDS011;10759;51.982;9.232;2023-07-20T00:40:22;6.32;;;3.40;;
21202;SDS011;10759;51.982;9.232;2023-07-20T00:42:49;5.55;;;3.05;;
21202;SDS011;10759;51.982;9.232;2023-07-20T00:45:22;3.38;;;2.80;;
21202;SDS011;10759;51.982;9.232;2023-07-20T00:47:52;4.05;;;3.40;;
21202;SDS011;10759;51.982;9.232;2023-07-20T00:50:20;6.80;;;3.63;;
21202;SDS011;10759;51.982;9.232;2023-07-20T00:52:48;3.22;;;2.92;;
21202;SDS011;10759;51.982;9.232;2023-07-20T00:55:18;4.68;;;2.80;;
21202;SDS011;10759;51.982;9.232;2023-07-20T00:57:46;10.90;;;4.65;;
21202;SDS011;10759;51.982;9.232;2023-07-20T01:00:14;5.40;;;3.95;;
21202;SDS011;10759;51.982;9.232;2023-07-20T01:02:43;7.82;;;4.13;;
21202;SDS011;10759;51.982;9.232;2023-07-20T01:05:12;8.52;;;3.70;;
21202;SDS011;10759;51.982;9.232;2023-07-20T01:07:43;5.85;;;3.95;;
21202;SDS011;10759;51.982;9.232;2023-07-20T01:10:22;7.95;;;3.88;;
21202;SDS011;10759;51.982;9.232;2023-07-20T01:12:54;12.70;;;5.72;;
21202;SDS011;10759;51.982;9.232;2023-07-20T01:15:24;8.55;;;5.57;;
21202;SDS011;10759;51.982;9.232;2023-07-20T01:17:52;6.45;;;5.43;;
21202;SDS011;10759;51.982;9.232;2023-07-20T01:20:21;6.53;;;5.93;;
21202;SDS011;10759;51.982;9.232;2023-07-20T01:22:56;8.32;;;5.85;;
21202;SDS011;10759;51.982;9.232;2023-07-20T01:25:45;6.97;;;5.35;;
21202;SDS011;10759;51.982;9.232;2023-07-20T01:28:35;4.78;;;4.40;;
21202;SDS011;10759;51.982;9.232;2023-07-20T01:31:21;5.25;;;4.75;;
21202;SDS011;10759;51.982;9.232;2023-07-20T01:33:52;4.53;;;4.13;;
21202;SDS011;10759;51.982;9.232;2023-07-20T01:36:22;3.90;;;3.50;;
21202;SDS011;10759;51.982;9.232;2023-07-20T01:38:52;4.97;;;3.95;;
21202;SDS011;10759;51.982;9.232;2023-07-20T01:41:21;4.85;;;4.03;;
21202;SDS011;10759;51.982;9.232;2023-07-20T01:43:50;4.30;;;3.90;;
21202;SDS011;10759;51.982;9.232;2023-07-20T01:46:18;5.28;;;3.97;;
21202;SDS011;10759;51.982;9.232;2023-07-20T01:48:48;3.90;;;3.63;;
21202;SDS011;10759;51.982;9.232;2023-07-20T01:56:15;4.93;;;4.45;;
21202;SDS011;10759;51.982;9.232;2023-07-20T01:58:43;8.30;;;4.78;;
21202;SDS011;10759;51.982;9.232;2023-07-20T02:01:11;4.63;;;4.32;;
21202;SDS011;10759;51.982;9.232;2023-07-20T02:03:39;6.22;;;3.83;;
21202;SDS011;10759;51.982;9.232;2023-07-20T02:06:08;6.13;;;4.40;;
21202;SDS011;10759;51.982;9.232;2023-07-20T02:08:36;6.90;;;4.30;;
21202;SDS011;10759;51.982;9.232;2023-07-20T02:11:04;11.50;;;4.40;;
21202;SDS011;10759;51.982;9.232;2023-07-20T02:13:32;9.15;;;4.15;;
21202;SDS011;10759;51.982;9.232;2023-07-20T02:16:00;7.43;;;4.53;;
21202;SDS011;10759;51.982;9.232;2023-07-20T02:18:28;6.28;;;4.75;;
21202;SDS011;10759;51.982;9.232;2023-07-20T02:20:56;5.07;;;4.43;;
21202;SDS011;10759;51.982;9.232;2023-07-20T02:23:26;8.40;;;5.03;;
21202;SDS011;10759;51.982;9.232;2023-07-20T02:25:55;8.93;;;5.10;;
21202;SDS011;10759;51.982;9.232;2023-07-20T02:28:23;11.18;;;5.78;;
21202;SDS011;10759;51.982;9.232;2023-07-20T02:30:51;8.95;;;5.00;;
21202;SDS011;10759;51.982;9.232;2023-07-20T02:33:20;9.43;;;4.25;;
21202;SDS011;10759;51.982;9.232;2023-07-20T02:35:48;10.60;;;4.22;;
21202;SDS011;10759;51.982;9.232;2023-07-20T02:38:17;8.40;;;4.63;;
21202;SDS011;10759;51.982;9.232;2023-07-20T02:40:46;6.88;;;4.97;;
21202;SDS011;10759;51.982;9.232;2023-07-20T02:43:14;9.70;;;5.40;;
21202;SDS011;10759;51.982;9.232;2023-07-20T02:45:44;9.43;;;4.78;;
21202;SDS011;10759;51.982;9.232;2023-07-20T02:48:13;10.45;;;5.40;;
21202;SDS011;10759;51.982;9.232;2023-07-20T02:50:43;6.13;;;4.63;;
21202;SDS011;10759;51.982;9.232;2023-07-20T02:53:11;7.93;;;5.63;;
21202;SDS011;10759;51.982;9.232;2023-07-20T02:55:39;12.15;;;5.18;;
21202;SDS011;10759;51.982;9.232;2023-07-20T02:58:08;6.65;;;5.30;;
21202;SDS011;10759;51.982;9.232;2023-07-20T03:00:36;5.93;;;5.07;;
21202;SDS011;10759;51.982;9.232;2023-07-20T03:03:04;11.05;;;5.43;;
21202;SDS011;10759;51.982;9.232;2023-07-20T03:05:36;11.82;;;5.90;;
21202;SDS011;10759;51.982;9.232;2023-07-20T03:08:05;10.32;;;5.00;;
21202;SDS011;10759;51.982;9.232;2023-07-20T03:10:37;7.07;;;5.43;;
21202;SDS011;10759;51.982;9.232;2023-07-20T03:13:06;8.95;;;5.40;;
21202;SDS011;10759;51.982;9.232;2023-07-20T03:15:36;6.93;;;5.45;;
21202;SDS011;10759;51.982;9.232;2023-07-20T03:18:03;17.13;;;6.00;;
21202;SDS011;10759;51.982;9.232;2023-07-20T03:20:32;6.10;;;5.50;;
21202;SDS011;10759;51.982;9.232;2023-07-20T03:23:00;9.32;;;5.80;;
21202;SDS011;10759;51.982;9.232;2023-07-20T03:25:28;8.88;;;5.70;;
21202;SDS011;10759;51.982;9.232;2023-07-20T03:27:56;9.65;;;5.93;;
21202;SDS011;10759;51.982;9.232;2023-07-20T03:30:24;6.45;;;5.78;;
21202;SDS011;10759;51.982;9.232;2023-07-20T03:32:54;12.07;;;6.25;;
21202;SDS011;10759;51.982;9.232;2023-07-20T03:35:22;8.87;;;5.97;;
21202;SDS011;10759;51.982;9.232;2023-07-20T03:37:50;7.82;;;7.15;;
21202;SDS011;10759;51.982;9.232;2023-07-20T03:40:17;11.82;;;7.72;;
21202;SDS011;10759;51.982;9.232;2023-07-20T03:42:45;8.50;;;7.07;;
21202;SDS011;10759;51.982;9.232;2023-07-20T03:45:13;7.25;;;6.45;;
21202;SDS011;10759;51.982;9.232;2023-07-20T03:47:41;8.00;;;6.80;;
21202;SDS011;10759;51.982;9.232;2023-07-20T03:50:12;8.85;;;6.15;;
21202;SDS011;10759;51.982;9.232;2023-07-20T03:52:40;10.63;;;5.97;;
21202;SDS011;10759;51.982;9.232;2023-07-20T03:55:08;8.20;;;6.03;;
21202;SDS011;10759;51.982;9.232;2023-07-20T03:57:36;9.20;;;5.68;;
21202;SDS011;10759;51.982;9.232;2023-07-20T04:00:05;12.40;;;6.55;;
21202;SDS011;10759;51.982;9.232;2023-07-20T04:02:38;7.10;;;6.40;;
21202;SDS011;10759;51.982;9.232;2023-07-20T04:05:06;9.02;;;6.25;;
21202;SDS011;10759;51.982;9.232;2023-07-20T04:07:36;7.45;;;6.53;;
21202;SDS011;10759;51.982;9.232;2023-07-20T04:10:04;9.20;;;6.53;;
21202;SDS011;10759;51.982;9.232;2023-07-20T04:15:02;10.18;;;6.70;;
21202;SDS011;10759;51.982;9.232;2023-07-20T04:17:30;4.35;;;3.95;;
21202;SDS011;10759;51.982;9.232;2023-07-20T04:19:58;3.90;;;2.40;;
21202;SDS011;10759;51.982;9.232;2023-07-20T04:22:26;2.90;;;2.60;;
21202;SDS011;10759;51.982;9.232;2023-07-20T04:24:55;2.92;;;2.60;;
21202;SDS011;10759;51.982;9.232;2023-07-20T04:27:24;3.20;;;2.40;;
21202;SDS011;10759;51.982;9.232;2023-07-20T04:29:52;2.95;;;2.75;;
21202;SDS011;10759;51.982;9.232;2023-07-20T04:32:20;3.25;;;2.90;;
21202;SDS011;10759;51.982;9.232;2023-07-20T04:34:48;4.47;;;3.25;;
21202;SDS011;10759;51.982;9.232;2023-07-20T04:37:17;6.03;;;2.80;;
21202;SDS011;10759;51.982;9.232;2023-07-20T04:39:46;4.83;;;3.47;;
21202;SDS011;10759;51.982;9.232;2023-07-20T04:42:16;5.93;;;3.05;;
21202;SDS011;10759;51.982;9.232;2023-07-20T04:44:46;3.50;;;3.20;;
21202;SDS011;10759;51.982;9.232;2023-07-20T04:47:15;3.90;;;3.50;;
21202;SDS011;10759;51.982;9.232;2023-07-20T04:49:43;3.80;;;3.35;;
21202;SDS011;10759;51.982;9.232;2023-07-20T04:52:11;3.38;;;3.17;;
21202;SDS011;10759;51.982;9.232;2023-07-20T04:54:39;3.22;;;3.03;;
21202;SDS011;10759;51.982;9.232;2023-07-20T04:57:11;3.10;;;2.80;;
21202;SDS011;10759;51.982;9.232;2023-07-20T04:59:45;6.82;;;3.00;;
21202;SDS011;10759;51.982;9.232;2023-07-20T05:02:13;5.73;;;3.30;;
21202;SDS011;10759;51.982;9.232;2023-07-20T05:04:44;4.03;;;3.70;;
21202;SDS011;10759;51.982;9.232;2023-07-20T05:07:12;4.10;;;3.80;;
21202;SDS011;10759;51.982;9.232;2023-07-20T05:09:40;3.90;;;3.60;;
21202;SDS011;10759;51.982;9.232;2023-07-20T05:12:08;3.72;;;3.53;;
21202;SDS011;10759;51.982;9.232;2023-07-20T05:14:38;4.57;;;4.15;;
21202;SDS011;10759;51.982;9.232;2023-07-20T05:17:09;4.70;;;4.35;;
21202;SDS011;10759;51.982;9.232;2023-07-20T05:19:37;4.28;;;3.92;;
21202;SDS011;10759;51.982;9.232;2023-07-20T05:22:09;4.47;;;4.07;;
21202;SDS011;10759;51.982;9.232;2023-07-20T05:24:38;4.82;;;4.10;;
21202;SDS011;10759;51.982;9.232;2023-07-20T05:27:06;5.55;;;4.20;;
21202;SDS011;10759;51.982;9.232;2023-07-20T05:29:34;5.18;;;4.88;;
21202;SDS011;10759;51.982;9.232;2023-07-20T05:32:02;4.95;;;4.47;;
21202;SDS011;10759;51.982;9.232;2023-07-20T05:34:32;4.53;;;4.22;;
21202;SDS011;10759;51.982;9.232;2023-07-20T05:37:00;6.07;;;5.57;;
21202;SDS011;10759;51.982;9.232;2023-07-20T05:39:28;5.72;;;5.20;;
21202;SDS011;10759;51.982;9.232;2023-07-20T05:41:56;5.88;;;5.47;;
21202;SDS011;10759;51.982;9.232;2023-07-20T05:44:24;5.88;;;5.38;;
21202;SDS011;10759;51.982;9.232;2023-07-20T05:46:52;5.78;;;5.40;;
21202;SDS011;10759;51.982;9.232;2023-07-20T05:49:23;6.38;;;5.85;;
21202;SDS011;10759;51.982;9.232;2023-07-20T05:51:53;6.07;;;5.65;;
21202;SDS011;10759;51.982;9.232;2023-07-20T05:54:21;6.10;;;5.60;;
21202;SDS011;10759;51.982;9.232;2023-07-20T05:56:49;6.15;;;5.75;;
21202;SDS011;10759;51.982;9.232;2023-07-20T05:59:17;6.45;;;5.95;;
21202;SDS011;10759;51.982;9.232;2023-07-20T06:01:46;5.18;;;4.78;;
21202;SDS011;10759;51.982;9.232;2023-07-20T06:04:15;5.30;;;4.90;;
21202;SDS011;10759;51.982;9.232;2023-07-20T06:06:43;5.40;;;4.90;;
21202;SDS011;10759;51.982;9.232;2023-07-20T06:09:12;5.15;;;4.70;;
21202;SDS011;10759;51.982;9.232;2023-07-20T06:11:40;4.72;;;4.32;;
21202;SDS011;10759;51.982;9.232;2023-07-20T06:14:08;4.78;;;4.38;;
21202;SDS011;10759;51.982;9.232;2023-07-20T06:16:36;5.10;;;4.70;;
21202;SDS011;10759;51.982;9.232;2023-07-20T06:19:04;5.18;;;4.80;;
21202;SDS011;10759;51.982;9.232;2023-07-20T06:21:32;5.53;;;5.03;;
21202;SDS011;10759;51.982;9.232;2023-07-20T06:24:01;4.97;;;4.68;;
21202;SDS011;10759;51.982;9.232;2023-07-20T06:26:30;4.10;;;3.70;;
21202;SDS011;10759;51.982;9.232;2023-07-20T06:29:04;3.60;;;3.30;;
21202;SDS011;10759;51.982;9.232;2023-07-20T06:31:33;3.78;;;3.33;;
21202;SDS011;10759;51.982;9.232;2023-07-20T06:34:02;3.53;;;3.25;;
21202;SDS011;10759;51.982;9.232;2023-07-20T06:36:31;4.38;;;3.05;;
21202;SDS011;10759;51.982;9.232;2023-07-20T06:38:59;2.90;;;2.70;;
21202;SDS011;10759;51.982;9.232;2023-07-20T06:41:31;2.80;;;2.30;;
21202;SDS011;10759;51.982;9.232;2023-07-20T06:44:02;2.50;;;2.30;;
21202;SDS011;10759;51.982;9.232;2023-07-20T06:46:31;2.58;;;2.17;;
21202;SDS011;10759;51.982;9.232;2023-07-20T06:48:59;2.20;;;2.10;;
21202;SDS011;10759;51.982;9.232;2023-07-20T06:51:30;2.65;;;2.35;;
21202;SDS011;10759;51.982;9.232;2023-07-20T06:53:58;2.28;;;2.17;;
21202;SDS011;10759;51.982;9.232;2023-07-20T06:56:26;2.00;;;1.90;;
21202;SDS011;10759;51.982;9.232;2023-07-20T06:58:58;3.00;;;2.08;;
21202;SDS011;10759;51.982;9.232;2023-07-20T07:01:26;1.80;;;1.70;;
21202;SDS011;10759;51.982;9.232;2023-07-20T07:03:54;1.95;;;1.80;;
21202;SDS011;10759;51.982;9.232;2023-07-20T07:06:23;1.63;;;1.52;;
21202;SDS011;10759;51.982;9.232;2023-07-20T07:08:52;6.15;;;2.00;;
21202;SDS011;10759;51.982;9.232;2023-07-20T07:11:20;1.52;;;1.42;;
21202;SDS011;10759;51.982;9.232;2023-07-20T07:13:49;1.65;;;1.50;;
21202;SDS011;10759;51.982;9.232;2023-07-20T07:16:19;1.92;;;1.65;;
21202;SDS011;10759;51.982;9.232;2023-07-20T07:18:47;1.60;;;1.50;;
21202;SDS011;10759;51.982;9.232;2023-07-20T07:21:18;2.38;;;1.58;;
21202;SDS011;10759;51.982;9.232;2023-07-20T07:23:46;1.65;;;1.55;;
21202;SDS011;10759;51.982;9.232;2023-07-20T07:26:14;2.00;;;1.90;;
21202;SDS011;10759;51.982;9.232;2023-07-20T07:28:42;1.60;;;1.50;;
21202;SDS011;10759;51.982;9.232;2023-07-20T07:31:10;1.88;;;1.75;;
21202;SDS011;10759;51.982;9.232;2023-07-20T07:33:40;1.73;;;1.60;;
21202;SDS011;10759;51.982;9.232;2023-07-20T07:36:08;2.40;;;2.20;;
21202;SDS011;10759;51.982;9.232;2023-07-20T07:38:36;1.98;;;1.88;;
21202;SDS011;10759;51.982;9.232;2023-07-20T07:41:24;1.90;;;1.80;;
21202;SDS011;10759;51.982;9.232;2023-07-20T07:43:52;2.17;;;1.98;;
21202;SDS011;10759;51.982;9.232;2023-07-20T07:46:20;2.92;;;2.70;;
21202;SDS011;10759;51.982;9.232;2023-07-20T07:48:50;2.10;;;2.00;;
21202;SDS011;10759;51.982;9.232;2023-07-20T07:51:18;2.03;;;1.92;;
21202;SDS011;10759;51.982;9.232;2023-07-20T07:53:46;2.88;;;1.92;;
21202;SDS011;10759;51.982;9.232;2023-07-20T07:56:16;3.22;;;2.92;;
21202;SDS011;10759;51.982;9.232;2023-07-20T07:58:48;3.17;;;2.97;;
21202;SDS011;10759;51.982;9.232;2023-07-20T08:01:18;2.70;;;2.50;;
21202;SDS011;10759;51.982;9.232;2023-07-20T08:03:46;2.78;;;2.58;;
21202;SDS011;10759;51.982;9.232;2023-07-20T08:06:15;2.72;;;2.53;;
21202;SDS011;10759;51.982;9.232;2023-07-20T08:08:43;3.00;;;2.80;;
21202;SDS011;10759;51.982;9.232;2023-07-20T08:11:11;3.05;;;2.85;;
21202;SDS011;10759;51.982;9.232;2023-07-20T08:13:41;2.65;;;2.47;;
21202;SDS011;10759;51.982;9.232;2023-07-20T08:16:09;2.30;;;2.20;;
21202;SDS011;10759;51.982;9.232;2023-07-20T08:18:37;2.25;;;2.10;;
21202;SDS011;10759;51.982;9.232;2023-07-20T08:21:05;2.47;;;2.28;;
21202;SDS011;10759;51.982;9.232;2023-07-20T08:23:35;2.25;;;2.15;;
21202;SDS011;10759;51.982;9.232;2023-07-20T08:26:03;2.03;;;1.93;;
21202;SDS011;10759;51.982;9.232;2023-07-20T08:28:31;1.50;;;1.40;;
21202;SDS011;10759;51.982;9.232;2023-07-20T08:30:59;1.20;;;1.20;;
21202;SDS011;10759;51.982;9.232;2023-07-20T08:33:27;2.25;;;1.48;;
21202;SDS011;10759;51.982;9.232;2023-07-20T08:35:56;1.50;;;1.40;;
21202;SDS011;10759;51.982;9.232;2023-07-20T08:38:24;1.42;;;1.27;;
21202;SDS011;10759;51.982;9.232;2023-07-20T08:40:53;1.63;;;1.52;;
21202;SDS011;10759;51.982;9.232;2023-07-20T08:45:50;1.27;;;1.23;;
21202;SDS011;10759;51.982;9.232;2023-07-20T08:48:19;1.33;;;1.10;;
21202;SDS011;10759;51.982;9.232;2023-07-20T08:50:49;1.90;;;1.30;;
21202;SDS011;10759;51.982;9.232;2023-07-20T08:53:18;1.45;;;0.90;;
21202;SDS011;10759;51.982;9.232;2023-07-20T08:55:46;1.20;;;0.98;;
21202;SDS011;10759;51.982;9.232;2023-07-20T08:58:18;1.02;;;0.80;;
21202;SDS011;10759;51.982;9.232;2023-07-20T09:00:46;1.50;;;0.90;;
21202;SDS011;10759;51.982;9.232;2023-07-20T09:05:46;1.02;;;0.70;;
21202;SDS011;10759;51.982;9.232;2023-07-20T09:08:13;0.80;;;0.63;;
21202;SDS011;10759;51.982;9.232;2023-07-20T09:10:41;0.80;;;0.68;;
21202;SDS011;10759;51.982;9.232;2023-07-20T09:13:13;0.80;;;0.80;;
21202;SDS011;10759;51.982;9.232;2023-07-20T09:15:46;0.77;;;0.77;;
21202;SDS011;10759;51.982;9.232;2023-07-20T09:18:23;1.85;;;0.60;;
21202;SDS011;10759;51.982;9.232;2023-07-20T09:20:52;0.98;;;0.63;;
21202;SDS011;10759;51.982;9.232;2023-07-20T09:23:20;1.33;;;0.60;;
21202;SDS011;10759;51.982;9.232;2023-07-20T09:25:58;0.63;;;0.60;;
21202;SDS011;10759;51.982;9.232;2023-07-20T09:28:26;0.50;;;0.50;;
21202;SDS011;10759;51.982;9.232;2023-07-20T09:30:56;1.83;;;0.70;;
21202;SDS011;10759;51.982;9.232;2023-07-20T09:33:25;1.25;;;0.82;;
21202;SDS011;10759;51.982;9.232;2023-07-20T09:35:54;0.65;;;0.65;;
21202;SDS011;10759;51.982;9.232;2023-07-20T09:38:27;0.68;;;0.60;;
21202;SDS011;10759;51.982;9.232;2023-07-20T09:41:19;0.70;;;0.70;;
21202;SDS011;10759;51.982;9.232;2023-07-20T09:43:51;3.13;;;0.80;;
21202;SDS011;10759;51.982;9.232;2023-07-20T09:46:20;1.15;;;0.60;;
21202;SDS011;10759;51.982;9.232;2023-07-20T09:48:51;1.55;;;0.85;;
21202;SDS011;10759;51.982;9.232;2023-07-20T09:51:23;1.08;;;0.52;;
21202;SDS011;10759;51.982;9.232;2023-07-20T09:53:52;0.77;;;0.40;;
21202;SDS011;10759;51.982;9.232;2023-07-20T09:56:21;1.92;;;0.70;;
21202;SDS011;10759;51.982;9.232;2023-07-20T09:58:50;2.67;;;0.60;;
21202;SDS011;10759;51.982;9.232;2023-07-20T10:01:20;1.65;;;0.60;;
21202;SDS011;10759;51.982;9.232;2023-07-20T10:03:52;0.73;;;0.50;;
21202;SDS011;10759;51.982;9.232;2023-07-20T10:06:23;0.90;;;0.57;;
21202;SDS011;10759;51.982;9.232;2023-07-20T10:08:52;0.85;;;0.60;;
21202;SDS011;10759;51.982;9.232;2023-07-20T10:11:21;0.65;;;0.60;;
21202;SDS011;10759;51.982;9.232;2023-07-20T10:13:54;0.50;;;0.50;;
21202;SDS011;10759;51.982;9.232;2023-07-20T10:16:27;1.52;;;0.77;;
21202;SDS011;10759;51.982;9.232;2023-07-20T10:19:02;3.03;;;0.60;;
21202;SDS011;10759;51.982;9.232;2023-07-20T10:21:45;0.70;;;0.70;;
21202;SDS011;10759;51.982;9.232;2023-07-20T10:24:22;1.25;;;0.60;;
21202;SDS011;10759;51.982;9.232;2023-07-20T10:26:51;0.60;;;0.60;;
21202;SDS011;10759;51.982;9.232;2023-07-20T10:29:19;0.50;;;0.50;;
21202;SDS011;10759;51.982;9.232;2023-07-20T10:31:49;2.63;;;0.50;;
21202;SDS011;10759;51.982;9.232;2023-07-20T10:34:21;1.80;;;0.70;;
21202;SDS011;10759;51.982;9.232;2023-07-20T10:36:49;0.50;;;0.50;;
21202;SDS011;10759;51.982;9.232;2023-07-20T10:39:22;1.38;;;0.70;;
21202;SDS011;10759;51.982;9.232;2023-07-20T10:41:50;0.98;;;0.70;;
21202;SDS011;10759;51.982;9.232;2023-07-20T10:44:26;1.85;;;0.60;;
21202;SDS011;10759;51.982;9.232;2023-07-20T10:47:00;1.10;;;0.50;;
21202;SDS011;10759;51.982;9.232;2023-07-20T10:49:30;0.70;;;0.47;;
21202;SDS011;10759;51.982;9.232;2023-07-20T10:52:03;3.10;;;0.90;;
21202;SDS011;10759;51.982;9.232;2023-07-20T10:54:33;0.60;;;0.60;;
21202;SDS011;10759;51.982;9.232;2023-07-20T10:57:28;0.52;;;0.45;;
21202;SDS011;10759;51.982;9.232;2023-07-20T11:00:07;1.20;;;0.60;;
21202;SDS011;10759;51.982;9.232;2023-07-20T11:02:46;0.63;;;0.50;;
21202;SDS011;10759;51.982;9.232;2023-07-20T11:05:36;0.70;;;0.60;;
21202;SDS011;10759;51.982;9.232;2023-07-20T11:08:09;0.60;;;0.60;;
21202;SDS011;10759;51.982;9.232;2023-07-20T11:10:38;0.95;;;0.80;;
21202;SDS011;10759;51.982;9.232;2023-07-20T11:16:03;1.23;;;0.63;;
21202;SDS011;10759;51.982;9.232;2023-07-20T11:18:36;0.93;;;0.85;;
21202;SDS011;10759;51.982;9.232;2023-07-20T11:21:10;0.50;;;0.50;;
21202;SDS011;10759;51.982;9.232;2023-07-20T11:23:38;0.70;;;0.60;;
21202;SDS011;10759;51.982;9.232;2023-07-20T11:26:07;0.75;;;0.57;;
21202;SDS011;10759;51.982;9.232;2023-07-20T11:28:36;0.63;;;0.50;;
21202;SDS011;10759;51.982;9.232;2023-07-20T11:31:04;1.20;;;0.60;;
21202;SDS011;10759;51.982;9.232;2023-07-20T11:33:32;0.65;;;0.65;;
21202;SDS011;10759;51.982;9.232;2023-07-20T11:36:02;0.98;;;0.60;;
21202;SDS011;10759;51.982;9.232;2023-07-20T11:38:52;1.85;;;0.60;;
21202;SDS011;10759;51.982;9.232;2023-07-20T11:41:20;2.10;;;0.50;;
21202;SDS011;10759;51.982;9.232;2023-07-20T11:43:48;0.60;;;0.60;;
21202;SDS011;10759;51.982;9.232;2023-07-20T11:46:16;0.77;;;0.68;;
21202;SDS011;10759;51.982;9.232;2023-07-20T11:48:45;1.23;;;0.70;;
21202;SDS011;10759;51.982;9.232;2023-07-20T11:51:15;3.03;;;0.88;;
21202;SDS011;10759;51.982;9.232;2023-07-20T11:53:44;0.75;;;0.68;;
21202;SDS011;10759;51.982;9.232;2023-07-20T11:56:13;1.60;;;0.52;;
21202;SDS011;10759;51.982;9.232;2023-07-20T11:58:42;1.55;;;0.80;;
21202;SDS011;10759;51.982;9.232;2023-07-20T12:01:11;0.73;;;0.60;;
21202;SDS011;10759;51.982;9.232;2023-07-20T12:03:39;0.63;;;0.63;;
21202;SDS011;10759;51.982;9.232;2023-07-20T12:06:09;0.65;;;0.65;;
21202;SDS011;10759;51.982;9.232;2023-07-20T12:08:39;1.05;;;0.80;;
21202;SDS011;10759;51.982;9.232;2023-07-20T12:11:08;1.60;;;1.20;;
21202;SDS011;10759;51.982;9.232;2023-07-20T12:13:37;2.08;;;0.90;;
21202;SDS011;10759;51.982;9.232;2023-07-20T12:16:06;0.63;;;0.60;;
21202;SDS011;10759;51.982;9.232;2023-07-20T12:18:37;1.95;;;0.60;;
21202;SDS011;10759;51.982;9.232;2023-07-20T12:21:06;0.80;;;0.80;;
21202;SDS011;10759;51.982;9.232;2023-07-20T12:23:35;0.87;;;0.83;;
21202;SDS011;10759;51.982;9.232;2023-07-20T12:26:09;0.90;;;0.90;;
21202;SDS011;10759;51.982;9.232;2023-07-20T12:28:41;1.63;;;0.85;;
21202;SDS011;10759;51.982;9.232;2023-07-20T12:31:09;2.20;;;1.00;;
21202;SDS011;10759;51.982;9.232;2023-07-20T12:36:08;0.82;;;0.73;;
21202;SDS011;10759;51.982;9.232;2023-07-20T12:38:36;0.82;;;0.80;;
21202;SDS011;10759;51.982;9.232;2023-07-20T12:41:04;1.25;;;0.80;;
21202;SDS011;10759;51.982;9.232;2023-07-20T12:43:34;1.33;;;0.88;;
21202;SDS011;10759;51.982;9.232;2023-07-20T12:46:02;1.37;;;0.90;;
21202;SDS011;10759;51.982;9.232;2023-07-20T12:48:30;0.63;;;0.63;;
21202;SDS011;10759;51.982;9.232;2023-07-20T12:50:58;1.33;;;0.80;;
21202;SDS011;10759;51.982;9.232;2023-07-20T12:53:26;1.33;;;0.90;;
21202;SDS011;10759;51.982;9.232;2023-07-20T12:55:54;0.68;;;0.68;;
21202;SDS011;10759;51.982;9.232;2023-07-20T12:58:23;1.33;;;0.80;;
21202;SDS011;10759;51.982;9.232;2023-07-20T13:00:52;1.05;;;0.65;;
21202;SDS011;10759;51.982;9.232;2023-07-20T13:03:20;1.30;;;0.80;;
21202;SDS011;10759;51.982;9.232;2023-07-20T13:05:51;1.52;;;0.80;;
21202;SDS011;10759;51.982;9.232;2023-07-20T13:08:22;3.10;;;1.00;;
21202;SDS011;10759;51.982;9.232;2023-07-20T13:10:52;0.68;;;0.50;;
21202;SDS011;10759;51.982;9.232;2023-07-20T13:13:21;1.08;;;0.82;;
21202;SDS011;10759;51.982;9.232;2023-07-20T13:15:49;1.08;;;0.70;;
21202;SDS011;10759;51.982;9.232;2023-07-20T13:18:18;0.95;;;0.70;;
21202;SDS011;10759;51.982;9.232;2023-07-20T13:20:46;0.90;;;0.70;;
21202;SDS011;10759;51.982;9.232;2023-07-20T13:23:14;1.73;;;0.70;;
21202;SDS011;10759;51.982;9.232;2023-07-20T13:25:42;0.68;;;0.68;;
21202;SDS011;10759;51.982;9.232;2023-07-20T13:28:10;0.88;;;0.75;;
21202;SDS011;10759;51.982;9.232;2023-07-20T13:30:39;1.48;;;0.70;;
21202;SDS011;10759;51.982;9.232;2023-07-20T13:33:07;1.35;;;0.90;;
21202;SDS011;10759;51.982;9.232;2023-07-20T13:35:40;1.15;;;0.80;;
21202;SDS011;10759;51.982;9.232;2023-07-20T13:38:11;0.80;;;0.80;;
21202;SDS011;10759;51.982;9.232;2023-07-20T13:40:39;2.47;;;0.80;;
21202;SDS011;10759;51.982;9.232;2023-07-20T13:43:07;1.00;;;0.93;;
21202;SDS011;10759;51.982;9.232;2023-07-20T13:45:35;1.35;;;0.90;;
21202;SDS011;10759;51.982;9.232;2023-07-20T13:48:05;1.15;;;1.00;;
21202;SDS011;10759;51.982;9.232;2023-07-20T13:50:33;0.95;;;0.95;;
21202;SDS011;10759;51.982;9.232;2023-07-20T13:53:05;3.30;;;0.90;;
21202;SDS011;10759;51.982;9.232;2023-07-20T13:55:36;1.15;;;1.08;;
21202;SDS011;10759;51.982;9.232;2023-07-20T13:58:07;1.20;;;1.10;;
21202;SDS011;10759;51.982;9.232;2023-07-20T14:00:38;1.23;;;1.10;;
21202;SDS011;10759;51.982;9.232;2023-07-20T14:03:07;1.20;;;1.10;;
21202;SDS011;10759;51.982;9.232;2023-07-20T14:05:38;7.38;;;1.13;;
21202;SDS011;10759;51.982;9.232;2023-07-20T14:08:11;1.38;;;1.27;;
21202;SDS011;10759;51.982;9.232;2023-07-20T14:10:39;1.05;;;1.05;;
21202;SDS011;10759;51.982;9.232;2023-07-20T14:13:10;1.30;;;1.20;;
21202;SDS011;10759;51.982;9.232;2023-07-20T14:15:38;1.20;;;1.20;;
21202;SDS011;10759;51.982;9.232;2023-07-20T14:18:06;1.45;;;1.35;;
21202;SDS011;10759;51.982;9.232;2023-07-20T14:20:34;1.40;;;1.30;;
21202;SDS011;10759;51.982;9.232;2023-07-20T14:23:04;1.63;;;1.40;;
21202;SDS011;10759;51.982;9.232;2023-07-20T14:25:34;1.60;;;1.50;;
21202;SDS011;10759;51.982;9.232;2023-07-20T14:28:03;1.85;;;1.75;;
21202;SDS011;10759;51.982;9.232;2023-07-20T14:30:32;2.08;;;1.98;;
21202;SDS011;10759;51.982;9.232;2023-07-20T14:33:00;1.80;;;1.70;;
21202;SDS011;10759;51.982;9.232;2023-07-20T14:35:28;2.30;;;2.10;;
21202;SDS011;10759;51.982;9.232;2023-07-20T14:37:56;1.90;;;1.80;;
21202;SDS011;10759;51.982;9.232;2023-07-20T14:40:24;2.08;;;1.98;;
21202;SDS011;10759;51.982;9.232;2023-07-20T14:42:54;2.00;;;1.90;;
21202;SDS011;10759;51.982;9.232;2023-07-20T14:45:22;1.85;;;1.75;;
21202;SDS011;10759;51.982;9.232;2023-07-20T14:47:50;2.00;;;1.90;;
21202;SDS011;10759;51.982;9.232;2023-07-20T14:50:21;2.30;;;2.20;;
21202;SDS011;10759;51.982;9.232;2023-07-20T14:52:49;2.10;;;2.00;;
21202;SDS011;10759;51.982;9.232;2023-07-20T14:55:17;2.00;;;1.90;;
21202;SDS011;10759;51.982;9.232;2023-07-20T14:57:45;1.70;;;1.60;;
21202;SDS011;10759;51.982;9.232;2023-07-20T15:00:16;1.67;;;1.58;;
21202;SDS011;10759;51.982;9.232;2023-07-20T15:05:17;2.03;;;1.85;;
21202;SDS011;10759;51.982;9.232;2023-07-20T15:07:48;2.25;;;1.73;;
21202;SDS011;10759;51.982;9.232;2023-07-20T15:10:16;1.90;;;1.80;;
21202;SDS011;10759;51.982;9.232;2023-07-20T15:12:44;2.22;;;2.13;;
21202;SDS011;10759;51.982;9.232;2023-07-20T15:15:13;2.60;;;2.40;;
21202;SDS011;10759;51.982;9.232;2023-07-20T15:17:43;4.28;;;2.03;;
21202;SDS011;10759;51.982;9.232;2023-07-20T15:20:12;1.90;;;1.80;;
21202;SDS011;10759;51.982;9.232;2023-07-20T15:22:41;2.22;;;2.13;;